Preview of NWS' New Version of Forecast
This preview is not operational and should not be used for support decisions.

Terminal Aerodrome Forecast (TAF)

Issued by National Weather Service (NWS)

                            
161 
FTUS42 KMFL 200321 AAA
TAFMIA
TAF AMD
KMIA 200321Z 2003/2106 09013KT P6SM VCSH FEW015 SCT025 BKN050
     FM200600 10016KT P6SM FEW015 SCT025 BKN050
     FM201500 12017G27KT P6SM FEW025 SCT050
     FM202100 11013G23KT P6SM FEW025 SCT050=